Map

Track Data

SID SEASON NUMBER BASIN SUBBASIN NAME ISO_TIME NATURE LAT LON WMO_WIND WMO_PRES WMO_AGENCY TRACK_TYPE DIST2LAND LANDFALL IFLAG USA_AGENCY USA_ATCF_ID USA_LAT USA_LON USA_RECORD USA_STATUS USA_WIND USA_PRES USA_SSHS USA_R34_NE USA_R34_SE USA_R34_SW USA_R34_NW USA_R50_NE USA_R50_SE USA_R50_SW USA_R50_NW USA_R64_NE USA_R64_SE USA_R64_SW USA_R64_NW USA_POCI USA_ROCI USA_RMW USA_EYE TOKYO_LAT TOKYO_LON TOKYO_GRADE TOKYO_WIND TOKYO_PRES TOKYO_R50_DIR TOKYO_R50_LONG TOKYO_R50_SHORT TOKYO_R30_DIR TOKYO_R30_LONG TOKYO_R30_SHORT TOKYO_LAND CMA_LAT CMA_LON CMA_CAT CMA_WIND CMA_PRES HKO_LAT HKO_LON HKO_CAT HKO_WIND HKO_PRES NEWDELHI_LAT NEWDELHI_LON NEWDELHI_GRADE NEWDELHI_WIND NEWDELHI_PRES NEWDELHI_CI NEWDELHI_DP NEWDELHI_POCI REUNION_LAT REUNION_LON REUNION_TYPE REUNION_WIND REUNION_PRES REUNION_TNUM REUNION_CI REUNION_RMW REUNION_R34_NE REUNION_R34_SE REUNION_R34_SW REUNION_R34_NW REUNION_R50_NE REUNION_R50_SE REUNION_R50_SW REUNION_R50_NW REUNION_R64_NE REUNION_R64_SE REUNION_R64_SW REUNION_R64_NW BOM_LAT BOM_LON BOM_TYPE BOM_WIND BOM_PRES BOM_TNUM BOM_CI BOM_RMW BOM_R34_NE BOM_R34_SE BOM_R34_SW BOM_R34_NW BOM_R50_NE BOM_R50_SE BOM_R50_SW BOM_R50_NW BOM_R64_NE BOM_R64_SE BOM_R64_SW BOM_R64_NW BOM_ROCI BOM_POCI BOM_EYE BOM_POS_METHOD BOM_PRES_METHOD NADI_LAT NADI_LON NADI_CAT NADI_WIND NADI_PRES WELLINGTON_LAT WELLINGTON_LON WELLINGTON_WIND WELLINGTON_PRES DS824_LAT DS824_LON DS824_STAGE DS824_WIND DS824_PRES TD9636_LAT TD9636_LON TD9636_STAGE TD9636_WIND TD9636_PRES TD9635_LAT TD9635_LON TD9635_WIND TD9635_PRES TD9635_ROCI NEUMANN_LAT NEUMANN_LON NEUMANN_CLASS NEUMANN_WIND NEUMANN_PRES MLC_LAT MLC_LON MLC_CLASS MLC_WIND MLC_PRES USA_GUST BOM_GUST BOM_GUST_PER REUNION_GUST REUNION_GUST_PER USA_SEAHGT USA_SEARAD_NE USA_SEARAD_SE USA_SEARAD_SW USA_SEARAD_NW STORM_SPEED STORM_DIR
1886277N14279 1886 37 NA CS NOT_NAMED 1886-10-04 00:00:00 TS 14.0000 -81.0000 main 239 226 _____________O -1 14.0000 -81.0000 TD 30 4 318
1886277N14279 1886 37 NA CS NOT_NAMED 1886-10-04 03:00:00 TS 14.1600 -81.1499 main 226 204 _____________P -1 14.1600 -81.1499 TD 30 4 316
1886277N14279 1886 37 NA CS NOT_NAMED 1886-10-04 06:00:00 TS 14.3000 -81.3000 main 204 194 _____________O -1 14.3000 -81.3000 TD 30 4 310
1886277N14279 1886 37 NA CS NOT_NAMED 1886-10-04 09:00:00 TS 14.4075 -81.4500 main 183 170 _____________P -1 14.4075 -81.4500 TD 32 4 304
1886277N14279 1886 37 NA CS NOT_NAMED 1886-10-04 12:00:00 TS 14.5000 -81.6000 main 170 157 _____________O -1 14.5000 -81.6000 TS 35 3 302
1886277N14279 1886 37 NA CS NOT_NAMED 1886-10-04 15:00:00 TS 14.5925 -81.7500 main 146 133 _____________P -1 14.5925 -81.7500 TS 40 4 304
1886277N14279 1886 37 NA CS NOT_NAMED 1886-10-04 18:00:00 TS 14.7000 -81.9000 main 133 120 _____________O -1 14.7000 -81.9000 TS 45 4 311
1886277N14279 1886 37 NA CS NOT_NAMED 1886-10-04 21:00:00 TS 14.8425 -82.0500 main 120 96 _____________P -1 14.8425 -82.0500 TS 50 4 316
1886277N14279 1886 37 NA CS NOT_NAMED 1886-10-05 00:00:00 TS 15.0000 -82.2000 main 96 86 _____________O -1 15.0000 -82.2000 TS 55 4 317
1886277N14279 1886 37 NA CS NOT_NAMED 1886-10-05 03:00:00 TS 15.1575 -82.3500 main 78 72 _____________P -1 15.1575 -82.3500 TS 57 4 316
1886277N14279 1886 37 NA CS NOT_NAMED 1886-10-05 06:00:00 TS 15.3000 -82.5000 main 72 63 _____________O -1 15.3000 -82.5000 TS 60 4 309
1886277N14279 1886 37 NA CS NOT_NAMED 1886-10-05 09:00:00 TS 15.4000 -82.6575 main 62 62 _____________P -1 15.4000 -82.6575 TS 62 4 305
1886277N14279 1886 37 NA CS NOT_NAMED 1886-10-05 12:00:00 TS 15.5000 -82.8000 main 64 63 _____________O -1 15.5000 -82.8000 HU 65 3 317
1886277N14279 1886 37 NA CS NOT_NAMED 1886-10-05 15:00:00 TS 15.6349 -82.8851 main 63 61 _____________P -1 15.6349 -82.8851 HU 65 4 327
1886277N14279 1886 37 NA CS NOT_NAMED 1886-10-05 18:00:00 TS 15.8000 -83.0000 main 70 70 _____________O -1 15.8000 -83.0000 HU 65 5 317
1886277N14279 1886 37 NA CS NOT_NAMED 1886-10-05 21:00:00 TS 16.0001 -83.2349 main 81 79 _____________P -1 16.0001 -83.2349 HU 65 6 310
1886277N14279 1886 37 NA CS NOT_NAMED 1886-10-06 00:00:00 TS 16.2000 -83.5000 main 85 79 _____________O -1 16.2000 -83.5000 HU 65 6 307
1886277N14279 1886 37 NA CS NOT_NAMED 1886-10-06 03:00:00 TS 16.3500 -83.7151 main 84 84 _____________P -1 16.3500 -83.7151 HU 67 5 308
1886277N14279 1886 37 NA CS NOT_NAMED 1886-10-06 06:00:00 TS 16.5000 -83.9000 main 89 89 _____________O -1 16.5000 -83.9000 HU 70 5 317
1886277N14279 1886 37 NA CS NOT_NAMED 1886-10-06 09:00:00 TS 16.7000 -84.0575 main 102 102 _____________P -1 16.7000 -84.0575 HU 70 5 324
1886277N14279 1886 37 NA CS NOT_NAMED 1886-10-06 12:00:00 TS 16.9000 -84.2000 main 123 123 _____________O -1 16.9000 -84.2000 HU 70 4 321
1886277N14279 1886 37 NA CS NOT_NAMED 1886-10-06 15:00:00 TS 17.0425 -84.3501 main 127 127 _____________P -1 17.0425 -84.3501 HU 70 4 316
1886277N14279 1886 37 NA CS NOT_NAMED 1886-10-06 18:00:00 TS 17.2000 -84.5000 main 147 147 _____________O -1 17.2000 -84.5000 HU 70 5 325
1886277N14279 1886 37 NA CS NOT_NAMED 1886-10-06 21:00:00 TS 17.4425 -84.6500 main 168 168 _____________P -1 17.4425 -84.6500 HU 70 6 330
1886277N14279 1886 37 NA CS NOT_NAMED 1886-10-07 00:00:00 TS 17.7000 -84.8000 main 201 201 _____________O -1 17.7000 -84.8000 HU 70 5 328
1886277N14279 1886 37 NA CS NOT_NAMED 1886-10-07 03:00:00 TS 17.9000 -84.9501 main 223 223 _____________P -1 17.9000 -84.9501 HU 70 5 325
1886277N14279 1886 37 NA CS NOT_NAMED 1886-10-07 06:00:00 TS 18.1000 -85.1000 main 246 246 _____________O -1 18.1000 -85.1000 HU 70 5 327
1886277N14279 1886 37 NA CS NOT_NAMED 1886-10-07 09:00:00 TS 18.3500 -85.2575 main 248 230 _____________P -1 18.3500 -85.2575 HU 70 6 330
1886277N14279 1886 37 NA CS NOT_NAMED 1886-10-07 12:00:00 TS 18.6000 -85.4000 main 230 214 _____________O -1 18.6000 -85.4000 HU 70 5 332
1886277N14279 1886 37 NA CS NOT_NAMED 1886-10-07 15:00:00 TS 18.7925 -85.5076 main 214 197 _____________P -1 18.7925 -85.5076 HU 70 4 335
1886277N14279 1886 37 NA CS NOT_NAMED 1886-10-07 18:00:00 TS 19.0000 -85.6000 main 197 171 _____________O -1 19.0000 -85.6000 HU 70 5 340
1886277N14279 1886 37 NA CS NOT_NAMED 1886-10-07 21:00:00 TS 19.2925 -85.7000 main 179 179 _____________P -1 19.2925 -85.7000 HU 70 11 51
1886277N14279 1886 37 NA CS NOT_NAMED 1886-10-08 00:00:00 TS 19.7000 -84.7000 50 hurdat_atl main 235 202 O____________O hurdat_atl AL101886 19.9000 -82.5000 TS 50 0 19.6000 -85.8000 HU 70 15 62
1886277N14279 1886 37 NA CS NOT_NAMED 1886-10-08 03:00:00 TS 19.9726 -84.3399 main 202 181 P____________P AL101886 20.0876 -82.7723 TS 52 0 19.8575 -85.9075 HU 70 7 42
1886277N14279 1886 37 NA CS NOT_NAMED 1886-10-08 06:00:00 TS 20.2200 -84.2000 55 hurdat_atl main 181 151 O____________O hurdat_atl AL101886 20.3000 -83.0000 TS 55 0 20.1000 -86.0000 HU 70 6 22
1886277N14279 1886 37 NA CS NOT_NAMED 1886-10-08 09:00:00 TS 20.4833 -84.1242 main 151 126 P____________P AL101886 20.5499 -83.1576 TS 57 0 20.3500 -86.0575 HU 70 5 356
1886277N14279 1886 37 NA CS NOT_NAMED 1886-10-08 12:00:00 TS 20.7333 -84.2333 60 hurdat_atl main 126 101 O____________O hurdat_atl AL101886 20.8000 -83.3000 TS 60 0 20.6000 -86.1000 HU 70 5 332
1886277N14279 1886 37 NA CS NOT_NAMED 1886-10-08 15:00:00 TS 20.9500 -84.3834 main 90 67 P____________P AL101886 21.0000 -83.4926 TS 62 0 20.8500 -86.1649 HU 70 5 327
1886277N14279 1886 37 NA CS NOT_NAMED 1886-10-08 18:00:00 TS 21.1667 -84.5333 65 hurdat_atl main 67 45 O____________O hurdat_atl AL101886 21.2000 -83.7000 HU 65 1 21.1000 -86.2000 HU 70 5 330
1886277N14279 1886 37 NA CS NOT_NAMED 1886-10-08 21:00:00 TS 21.4142 -84.6650 main 45 11 P____________P AL101886 21.4425 -83.9075 HU 65 1 21.3575 -86.1800 HU 70 5 336
1886277N14279 1886 37 NA CS NOT_NAMED 1886-10-09 00:00:00 TS 21.6667 -84.7667 65 hurdat_atl main 11 0 O____________O hurdat_atl AL101886 21.7000 -84.1000 HU 65 1 21.6000 -86.1000 HU 70 5 343
1886277N14279 1886 37 NA GM NOT_NAMED 1886-10-09 03:00:00 TS 21.9025 -84.8242 main 0 0 P____________P AL101886 21.9499 -84.2501 HU 62 0 21.8075 -85.9725 HU 70 5 348
1886277N14279 1886 37 NA GM NOT_NAMED 1886-10-09 06:00:00 TS 22.1333 -84.8667 60 hurdat_atl main 22 22 O____________O hurdat_atl AL101886 22.2000 -84.4000 TS 60 0 22.0000 -85.8000 HU 70 5 347
1886277N14279 1886 37 NA GM NOT_NAMED 1886-10-09 09:00:00 TS 22.3617 -84.9358 main 52 52 P____________P AL101886 22.4425 -84.6000 TS 60 0 22.2000 -85.6075 HU 70 5 345
1886277N14279 1886 37 NA GM NOT_NAMED 1886-10-09 12:00:00 TS 22.6000 -85.0000 60 hurdat_atl main 70 70 O____________O hurdat_atl AL101886 22.7000 -84.8000 TS 60 0 22.4000 -85.4000 HU 70 5 350
1886277N14279 1886 37 NA GM NOT_NAMED 1886-10-09 15:00:00 TS 22.8491 -85.0358 main 83 83 P____________P AL101886 22.9925 -84.9576 TS 62 0 22.5625 -85.1923 HU 70 5 354
1886277N14279 1886 37 NA GM NOT_NAMED 1886-10-09 18:00:00 TS 23.1333 -85.0667 65 hurdat_atl main 113 113 O____________O hurdat_atl AL101886 23.3000 -85.1000 HU 65 1 22.8000 -85.0000 HU 70 6 354
1886277N14279 1886 37 NA GM NOT_NAMED 1886-10-09 21:00:00 TS 23.4683 -85.1043 main 143 143 P____________P AL101886 23.5925 -85.2501 HU 65 1 23.2200 -84.8128 HU 70 7 353
1886277N14279 1886 37 NA GM NOT_NAMED 1886-10-10 00:00:00 TS 23.8333 -85.1667 65 hurdat_atl main 173 173 O____________O hurdat_atl AL101886 23.9000 -85.4000 HU 65 1 23.7000 -84.7000 HU 70 7 348
1886277N14279 1886 37 NA GM NOT_NAMED 1886-10-10 03:00:00 TS 24.1900 -85.2659 main 213 213 P____________P AL101886 24.2500 -85.5500 HU 67 1 24.0699 -84.6976 HU 72 8 344
1886277N14279 1886 37 NA GM NOT_NAMED 1886-10-10 06:00:00 TS 24.5667 -85.4000 70 hurdat_atl main 255 255 O____________O hurdat_atl AL101886 24.6000 -85.7000 HU 70 1 24.5000 -84.8000 HU 75 9 343
1886277N14279 1886 37 NA GM NOT_NAMED 1886-10-10 09:00:00 TS 25.0058 -85.5441 main 298 298 P____________P AL101886 24.9150 -85.8426 HU 72 1 25.1874 -84.9471 HU 77 9 340
1886277N14279 1886 37 NA GM NOT_NAMED 1886-10-10 12:00:00 TS 25.4000 -85.7333 75 hurdat_atl main 347 347 O____________O hurdat_atl AL101886 25.2000 -86.0000 HU 75 1 25.8000 -85.2000 HU 80 8 328
1886277N14279 1886 37 NA GM NOT_NAMED 1886-10-10 15:00:00 TS 25.6417 -85.9803 main 382 382 P____________P AL101886 25.4575 -86.1851 HU 77 1 26.0101 -85.5706 HU 82 6 312
1886277N14279 1886 37 NA GM NOT_NAMED 1886-10-10 18:00:00 TS 25.8333 -86.2667 80 hurdat_atl main 404 399 O____________O hurdat_atl AL101886 25.7000 -86.4000 HU 80 1 26.1000 -86.0000 HU 85 7 310
1886277N14279 1886 37 NA GM NOT_NAMED 1886-10-10 21:00:00 TS 26.0783 -86.5592 main 406 376 P____________P AL101886 25.9500 -86.6351 HU 82 1 26.3350 -86.4075 HU 87 7 313
1886277N14279 1886 37 NA GM NOT_NAMED 1886-10-11 00:00:00 TS 26.3333 -86.8667 85 hurdat_atl main 371 326 O____________O hurdat_atl AL101886 26.2000 -86.9000 HU 85 2 26.6000 -86.8000 HU 90 8 312
1886277N14279 1886 37 NA GM NOT_NAMED 1886-10-11 03:00:00 TS 26.5833 -87.1809 main 326 291 P____________P AL101886 26.4500 -87.1926 HU 87 2 26.8499 -87.1577 HU 92 8 311
1886277N14279 1886 37 NA GM NOT_NAMED 1886-10-11 06:00:00 TS 26.8333 -87.5000 90 hurdat_atl main 291 247 O____________O hurdat_atl AL101886 26.7000 -87.5000 HU 90 2 27.1000 -87.5000 HU 95 8 313
1886277N14279 1886 37 NA GM NOT_NAMED 1886-10-11 09:00:00 TS 27.0906 -87.8018 main 247 213 P____________P AL101886 26.9573 -87.7777 HU 92 2 27.3574 -87.8501 HU 97 8 312
1886277N14279 1886 37 NA GM NOT_NAMED 1886-10-11 12:00:00 TS 27.3333 -88.1333 95 hurdat_atl main 213 177 O____________O hurdat_atl AL101886 27.2000 -88.1000 HU 95 2 27.6000 -88.2000 MH 100 8 306
1886277N14279 1886 37 NA GM NOT_NAMED 1886-10-11 15:00:00 TS 27.5506 -88.5126 main 166 146 P____________P AL101886 27.4147 -88.4977 HU 97 3 27.8224 -88.5426 MH 102 8 298
1886277N14279 1886 37 NA GM NOT_NAMED 1886-10-11 18:00:00 TS 27.7333 -88.9667 100 hurdat_atl main 145 126 O____________O hurdat_atl AL101886 27.6000 -89.0000 HU 100 3 28.0000 -88.9000 MH 105 9 290
1886277N14279 1886 37 NA GM NOT_NAMED 1886-10-11 21:00:00 TS 27.8791 -89.5060 main 128 122 P____________P AL101886 27.7575 -89.6127 HU 102 3 28.1224 -89.2926 MH 105 10 285
1886277N14279 1886 37 NA GM NOT_NAMED 1886-10-12 00:00:00 TS 28.0000 -90.1000 105 hurdat_atl main 122 111 O____________O hurdat_atl AL101886 27.9000 -90.3000 HU 105 3 28.2000 -89.7000 MH 105 11 282
1886277N14279 1886 37 NA GM NOT_NAMED 1886-10-12 03:00:00 TS 28.1092 -90.7127 main 112 100 P____________P AL101886 28.0427 -91.0227 HU 105 3 28.2423 -90.0928 MH 105 11 282
1886277N14279 1886 37 NA GM NOT_NAMED 1886-10-12 06:00:00 TS 28.2333 -91.3000 105 hurdat_atl main 107 101 O____________O hurdat_atl AL101886 28.2000 -91.7000 HU 105 3 28.3000 -90.5000 MH 105 10 287
1886277N14279 1886 37 NA GM NOT_NAMED 1886-10-12 09:00:00 TS 28.3989 -91.8184 main 112 100 P____________P AL101886 28.3772 -92.2602 HU 105 3 28.4423 -90.9349 MH 105 9 293
1886277N14279 1886 37 NA GM NOT_NAMED 1886-10-12 12:00:00 TS 28.6000 -92.2667 105 hurdat_atl main 100 83 O____________O hurdat_atl AL101886 28.6000 -92.7000 HU 105 3 28.6000 -91.4000 MH 105 8 297
1886277N14279 1886 37 NA GM NOT_NAMED 1886-10-12 15:00:00 TS 28.7704 -92.6589 main 87 73 P____________P AL101886 28.8583 -93.0559 HU 105 3 28.5945 -91.8649 MH 90 8 306
1886277N14279 1886 37 NA GM NOT_NAMED 1886-10-12 18:00:00 TS 29.0667 -93.0000 105 hurdat_atl main 67 22 O____________O hurdat_atl AL101886 29.2000 -93.3000 HU 105 3 28.8000 -92.4000 HU 75 10 325
1886277N14279 1886 37 NA GM NOT_NAMED 1886-10-12 21:00:00 TS 29.6114 -93.3240 main 22 0 P____________P AL101886 29.6446 -93.4554 HU 105 3 29.5450 -93.0612 HU 70 13 333
1886277N14279 1886 37 NA NA NOT_NAMED 1886-10-12 22:00:00 TS 29.8199 -93.4343 105 hurdat_atl main 0 0 O____________P hurdat_atl AL101886 29.8000 -93.5000 L HU 105 3 29.8597 -93.3028 HU 68 14 335
1886277N14279 1886 37 NA NA NOT_NAMED 1886-10-13 00:00:00 TS 30.2333 -93.6667 75 hurdat_atl main 0 0 O____________O hurdat_atl AL101886 30.1000 -93.6000 HU 75 1 30.5000 -93.8000 HU 65 13 331
1886277N14279 1886 37 NA NA NOT_NAMED 1886-10-13 03:00:00 TS 30.7970 -94.0707 main 0 0 P____________P AL101886 30.5754 -93.6926 HU 70 1 31.2401 -94.8271 HU 57 13 338
1886277N14279 1886 37 NA NA NOT_NAMED 1886-10-13 06:00:00 TS 31.4333 -94.2333 65 hurdat_atl main 0 0 O____________O hurdat_atl AL101886 31.1000 -93.7000 HU 65 1 32.1000 -95.3000 TS 50 15 8
1886277N14279 1886 37 NA NA NOT_NAMED 1886-10-13 09:00:00 TS 32.2371 -93.8302 main 0 0 P____________P AL101886 31.7074 -93.6524 HU 57 0 33.2966 -94.1859 TS 42 20 25
1886277N14279 1886 37 NA NA NOT_NAMED 1886-10-13 12:00:00 TS 33.2200 -93.2600 50 hurdat_atl main 0 0 O____________O hurdat_atl AL101886 32.3000 -93.5000 TS 50 0 34.6000 -92.9000 TS 35 21 15
1886277N14279 1886 37 NA NA NOT_NAMED 1886-10-13 15:00:00 TS 34.2957 -93.1639 main 0 0 P____________P AL101886 32.7853 -93.2331 TS 42 0 35.8062 -93.0947 TS 32 25 359
1886277N14279 1886 37 NA NA NOT_NAMED 1886-10-13 18:00:00 MX 35.7333 -93.3000 35 hurdat_atl main 0 0 O____________O hurdat_atl AL101886 33.2000 -92.9000 TS 35 0 37.0000 -93.5000 EX 30 39 1
1886277N14279 1886 37 NA NA NOT_NAMED 1886-10-13 21:00:00 ET 38.2003 -93.0607 main 0 0 _____________P AL101886 TS -1 38.2003 -93.0607 EX 35 38 12
1886277N14279 1886 37 NA NA NOT_NAMED 1886-10-14 00:00:00 ET 39.4000 -92.3000 main 0 0 _____________O -1 39.4000 -92.3000 EX 40 27 22
1886277N14279 1886 37 NA NA NOT_NAMED 1886-10-14 03:00:00 ET 40.6829 -91.7835 main 0 0 _____________P -1 40.6829 -91.7835 EX 50 27 25
1886277N14279 1886 37 NA NA NOT_NAMED 1886-10-14 06:00:00 ET 41.8000 -90.8000 main 0 0 _____________O -1 41.8000 -90.8000 EX 60 29 51
1886277N14279 1886 37 NA NA NOT_NAMED 1886-10-14 09:00:00 ET 42.4954 -88.8139 main 0 0 _____________P -1 42.4954 -88.8139 EX 60 35 70
1886277N14279 1886 37 NA NA NOT_NAMED 1886-10-14 12:00:00 ET 43.0000 -86.4000 main 0 0 _____________O -1 43.0000 -86.4000 EX 60 36 72
1886277N14279 1886 37 NA NA NOT_NAMED 1886-10-14 15:00:00 ET 43.6000 -84.1161 main 0 0 _____________P -1 43.6000 -84.1161 EX 60 34 69
1886277N14279 1886 37 NA NA NOT_NAMED 1886-10-14 18:00:00 ET 44.2000 -82.0000 main 0 0 _____________O -1 44.2000 -82.0000 EX 60 30 67
1886277N14279 1886 37 NA NA NOT_NAMED 1886-10-14 21:00:00 ET 44.8013 -80.2554 main 0 0 _____________P -1 44.8013 -80.2554 EX 60 26 63
1886277N14279 1886 37 NA NA NOT_NAMED 1886-10-15 00:00:00 ET 45.4000 -78.7000 main 0 0 _____________O -1 45.4000 -78.7000 EX 60 25 62
1886277N14279 1886 37 NA NA NOT_NAMED 1886-10-15 03:00:00 ET 45.9663 -77.1243 main 0 0 _____________P -1 45.9663 -77.1243 EX 60 25 64
1886277N14279 1886 37 NA NA NOT_NAMED 1886-10-15 06:00:00 ET 46.5000 -75.5000 main 0 _____________O -1 46.5000 -75.5000 EX 60 25 64

About IBTrACS Database

This database is a web-friendly format of International Best Track Archive for Climate Stewardship (IBTrACS), a global best track data archive curated by NOAA dating back to 1842.

Updated: 2021-12-06